Time;durP1;ratioP1;P1;durP2;ratioP2;P2;SDS_P1;SDS_P2;PMS_P1;PMS_P2;Temp;Humidity;BMP_temperature;BMP_pressure;BME280_temperature;BME280_humidity;BME280_pressure;Samples;Min_cycle;Max_cycle;Signal;HPM_P1;HPM_P2
2022/05/23 00:00:14;;;;;;;5.53;2.80;;;;;;;8.66;76.35;101512.69;5004441;28;20059;-41
2022/05/23 00:02:39;;;;;;;5.90;2.75;;;;;;;8.73;76.20;101516.09;5004805;28;20021;-41
2022/05/23 00:05:06;;;;;;;4.40;3.17;;;;;;;8.80;75.87;101513.41;5003812;28;20026;-41
2022/05/23 00:07:35;;;;;;;4.38;2.90;;;;;;;8.77;75.28;101517.31;5003843;28;20029;-41
2022/05/23 00:10:02;;;;;;;3.90;3.00;;;;;;;8.74;75.42;101517.75;5004999;28;20168;-41
2022/05/23 00:12:28;;;;;;;5.28;3.15;;;;;;;8.71;75.91;101507.50;5004667;28;20120;-41
2022/05/23 00:14:53;;;;;;;8.45;3.25;;;;;;;8.70;75.82;101507.72;5005159;28;20168;-41
2022/05/23 00:17:20;;;;;;;4.25;2.53;;;;;;;8.69;75.19;101498.06;5003347;28;20033;-42
2022/05/23 00:19:46;;;;;;;5.30;2.88;;;;;;;8.58;75.71;101491.56;5004343;28;20037;-41
2022/05/23 00:22:13;;;;;;;4.40;2.50;;;;;;;8.36;76.48;101492.94;5005578;28;20026;-42
2022/05/23 00:24:41;;;;;;;5.43;2.67;;;;;;;8.31;76.73;101487.41;5004172;28;20022;-41
2022/05/23 00:27:09;;;;;;;5.70;2.90;;;;;;;8.26;76.64;101481.88;5001367;28;21518;-42
2022/05/23 00:29:34;;;;;;;5.03;3.38;;;;;;;8.24;77.32;101483.94;5002255;28;20022;-41
2022/05/23 00:37:28;;;;;;;6.93;3.78;;;;;;;8.30;77.81;101478.56;5004463;28;20032;-41
2022/05/23 00:39:53;;;;;;;5.55;3.13;;;;;;;8.33;78.22;101482.66;5004806;28;20022;-41
2022/05/23 00:45:15;;;;;;;5.05;3.55;;;;;;;8.39;76.76;101474.63;5000765;28;20412;-41
2022/05/23 00:47:42;;;;;;;3.95;3.10;;;;;;;8.34;76.14;101470.97;5001417;28;20034;-41
2022/05/23 00:50:09;;;;;;;5.82;3.00;;;;;;;8.30;76.07;101481.25;5001527;28;20029;-41
2022/05/23 00:52:49;;;;;;;4.22;3.17;;;;;;;8.21;75.05;101473.69;5002894;28;20095;-42
2022/05/23 00:55:47;;;;;;;5.38;2.90;;;;;;;8.01;75.67;101474.63;5000533;28;20034;-41
2022/05/23 00:58:28;;;;;;;3.83;3.05;;;;;;;8.03;76.03;101485.91;5002627;28;20142;-41
2022/05/23 01:00:57;;;;;;;3.85;3.08;;;;;;;8.13;75.96;101488.94;5003108;28;20030;-41
2022/05/23 01:03:23;;;;;;;4.93;3.42;;;;;;;8.14;75.18;101485.25;4999800;28;20022;-41
2022/05/23 01:05:51;;;;;;;4.43;3.00;;;;;;;8.24;76.32;101489.28;5004000;28;20025;-41
2022/05/23 01:08:17;;;;;;;5.25;3.25;;;;;;;8.31;76.02;101495.41;5000507;28;20413;-42
2022/05/23 01:10:44;;;;;;;6.93;3.80;;;;;;;8.28;76.35;101496.66;5000719;28;20069;-42
2022/05/23 01:13:10;;;;;;;3.50;2.80;;;;;;;8.19;75.75;101498.75;5002408;28;20085;-41
2022/05/23 01:15:36;;;;;;;3.22;2.85;;;;;;;8.10;74.86;101497.38;5001896;28;20077;-41
2022/05/23 01:18:03;;;;;;;3.88;3.15;;;;;;;8.02;75.35;101502.13;4999922;28;20060;-41
2022/05/23 01:20:29;;;;;;;4.93;2.67;;;;;;;7.91;74.81;101495.63;4999624;28;20030;-42
2022/05/23 01:23:03;;;;;;;5.32;2.45;;;;;;;7.79;74.46;101486.63;4999808;28;20037;-41
2022/05/23 01:25:34;;;;;;;4.47;2.65;;;;;;;7.60;75.21;101482.19;5004640;28;20117;-41
2022/05/23 01:28:01;;;;;;;3.30;2.72;;;;;;;7.53;75.67;101480.34;5004811;28;20041;-41
2022/05/23 01:30:27;;;;;;;5.20;2.65;;;;;;;7.47;76.14;101475.03;4999747;28;20037;-41
2022/05/23 01:32:53;;;;;;;6.07;2.88;;;;;;;7.42;76.46;101480.19;5002539;28;20034;-41
2022/05/23 01:35:18;;;;;;;6.53;3.13;;;;;;;7.40;76.85;101483.06;4998395;28;20176;-41
2022/05/23 01:37:44;;;;;;;3.25;2.78;;;;;;;7.40;76.81;101471.59;5005931;28;20022;-41
2022/05/23 01:40:16;;;;;;;3.80;3.00;;;;;;;7.39;77.46;101469.97;5003558;28;20053;-41
2022/05/23 01:42:43;;;;;;;5.07;3.28;;;;;;;7.39;77.33;101460.09;5002140;28;20443;-42
2022/05/23 01:45:09;;;;;;;3.40;3.08;;;;;;;7.44;77.57;101462.97;5003061;28;20022;-41
2022/05/23 01:47:35;;;;;;;5.25;3.03;;;;;;;7.47;77.52;101461.72;4998234;28;20019;-41
2022/05/23 01:50:00;;;;;;;4.68;3.40;;;;;;;7.45;78.16;101464.59;5004101;28;20096;-41
2022/05/23 01:52:26;;;;;;;5.05;3.35;;;;;;;7.48;77.92;101458.84;5005660;28;20029;-41
2022/05/23 01:54:51;;;;;;;5.60;3.22;;;;;;;7.51;77.74;101466.41;5002436;28;20022;-41
2022/05/23 01:57:17;;;;;;;7.47;3.30;;;;;;;7.54;78.00;101471.34;5001350;28;20030;-42
2022/05/23 02:02:26;;;;;;;4.57;3.03;;;;;;;7.62;76.58;101464.13;5004263;28;20393;-41
2022/05/23 02:04:53;;;;;;;6.10;3.42;;;;;;;7.49;76.75;101465.81;5005336;28;20113;-41
2022/05/23 02:07:19;;;;;;;5.00;3.40;;;;;;;7.40;77.24;101460.94;5001983;28;20467;-41
2022/05/23 02:09:45;;;;;;;4.07;3.20;;;;;;;7.36;77.38;101457.88;5001822;28;20080;-41
2022/05/23 02:12:12;;;;;;;4.47;3.45;;;;;;;7.31;76.87;101460.31;5005331;28;20140;-41
2022/05/23 02:14:37;;;;;;;6.57;3.50;;;;;;;7.25;76.66;101461.16;5002657;28;20139;-41
2022/05/23 02:17:04;;;;;;;6.38;3.38;;;;;;;7.23;76.58;101457.91;5004698;28;20479;-41
2022/05/23 02:19:32;;;;;;;3.78;3.47;;;;;;;7.15;75.96;101460.75;5005294;28;20108;-41
2022/05/23 02:21:58;;;;;;;4.97;2.72;;;;;;;7.02;75.85;101453.63;4998548;28;20037;-41
2022/05/23 02:24:23;;;;;;;5.13;3.13;;;;;;;6.90;77.00;101449.94;5003729;28;20383;-41
2022/05/23 02:26:49;;;;;;;7.45;3.70;;;;;;;6.79;76.90;101448.72;5000606;28;20030;-41
2022/05/23 02:29:15;;;;;;;5.85;3.15;;;;;;;6.75;76.93;101450.16;5001166;28;20119;-41
2022/05/23 02:31:41;;;;;;;4.40;2.85;;;;;;;6.72;77.72;101444.44;5001382;28;20479;-41
2022/05/23 02:34:07;;;;;;;5.05;3.20;;;;;;;6.69;78.13;101447.50;5002601;28;20546;-41
2022/05/23 02:36:33;;;;;;;10.27;4.55;;;;;;;6.78;78.02;101451.59;5003373;28;20051;-41
2022/05/23 02:38:58;;;;;;;7.63;4.53;;;;;;;6.86;77.34;101444.22;4999374;28;20472;-41
2022/05/23 02:41:24;;;;;;;6.22;4.10;;;;;;;6.95;77.62;101450.97;4998756;28;20113;-41
2022/05/23 02:43:50;;;;;;;5.15;3.92;;;;;;;6.94;77.77;101441.31;5000297;28;20018;-41
2022/05/23 02:46:15;;;;;;;7.15;4.47;;;;;;;6.95;77.39;101437.63;5003784;28;20068;-41
2022/05/23 02:48:41;;;;;;;14.55;7.95;;;;;;;6.94;77.12;101443.16;4999814;28;20020;-41
2022/05/23 02:51:06;;;;;;;24.48;10.18;;;;;;;6.84;77.72;101440.13;5001722;28;20178;-41
2022/05/23 02:53:32;;;;;;;15.30;7.47;;;;;;;6.71;78.14;101440.13;5000319;28;20026;-41
2022/05/23 02:55:58;;;;;;;10.30;5.85;;;;;;;6.60;78.76;101441.53;4999250;28;20483;-41
2022/05/23 02:58:23;;;;;;;11.90;5.63;;;;;;;6.56;78.51;101440.31;5004030;28;20076;-41
2022/05/23 03:00:49;;;;;;;29.45;14.57;;;;;;;6.56;78.68;101437.66;5002870;28;20022;-41
2022/05/23 03:03:14;;;;;;;43.30;19.92;;;;;;;6.48;79.12;101438.69;4997309;28;20061;-41
2022/05/23 03:05:43;;;;;;;28.05;15.27;;;;;;;6.46;78.96;101427.41;4999621;28;20068;-40
2022/05/23 03:08:11;;;;;;;19.13;9.20;;;;;;;6.46;78.75;101432.72;5000596;28;20033;-41
2022/05/23 03:10:37;;;;;;;12.77;6.55;;;;;;;6.52;78.99;101421.28;5004260;28;20084;-41
2022/05/23 03:13:03;;;;;;;10.55;5.95;;;;;;;6.57;78.34;101431.31;4997505;28;20084;-41
2022/05/23 03:15:30;;;;;;;7.75;5.47;;;;;;;6.56;78.17;101427.84;5004319;28;20431;-41
2022/05/23 03:17:56;;;;;;;7.63;5.10;;;;;;;6.53;78.71;101430.91;5002436;28;20360;-41
2022/05/23 03:20:22;;;;;;;10.43;5.80;;;;;;;6.54;78.86;101432.53;5002452;28;20551;-41
2022/05/23 03:28:16;;;;;;;7.53;4.57;;;;;;;6.72;78.89;101445.25;5000767;28;20579;-41
2022/05/23 03:30:42;;;;;;;8.10;5.20;;;;;;;6.73;79.46;101448.72;5002035;28;20395;-41
2022/05/23 03:33:08;;;;;;;6.90;4.22;;;;;;;6.76;79.39;101446.47;5004048;28;20045;-41
2022/05/23 03:35:34;;;;;;;7.40;4.07;;;;;;;6.79;79.75;101453.22;5005977;28;20021;-41
2022/05/23 03:38:01;;;;;;;6.80;4.03;;;;;;;6.76;79.75;101449.13;5008894;28;20022;-40
2022/05/23 03:40:27;;;;;;;10.20;5.32;;;;;;;6.80;80.21;101449.53;5006562;28;20041;-40
2022/05/23 03:42:54;;;;;;;5.97;3.88;;;;;;;6.86;79.81;101443.41;5004687;28;20502;-40
2022/05/23 03:45:20;;;;;;;6.10;4.15;;;;;;;6.86;80.30;101444.22;5005273;28;20251;-40
2022/05/23 03:47:46;;;;;;;6.55;4.32;;;;;;;6.88;80.18;101450.16;5002904;28;20175;-40
2022/05/23 03:50:12;;;;;;;6.65;4.35;;;;;;;6.88;80.35;101447.50;5001160;28;20187;-40
2022/05/23 03:52:38;;;;;;;9.73;3.90;;;;;;;6.86;80.02;101449.53;5005031;28;20026;-40
2022/05/23 03:55:05;;;;;;;4.93;3.85;;;;;;;6.87;80.06;101445.03;5003624;28;20076;-40
2022/05/23 03:57:30;;;;;;;5.55;3.63;;;;;;;6.87;80.55;101445.84;5003538;28;20507;-41
2022/05/23 03:59:57;;;;;;;5.53;3.75;;;;;;;6.89;81.10;101438.47;5004148;28;20100;-40
2022/05/23 04:02:23;;;;;;;5.05;3.47;;;;;;;6.96;82.05;101447.25;5004635;28;20322;-40
2022/05/23 04:04:49;;;;;;;5.13;3.40;;;;;;;7.09;82.14;101449.09;5000626;28;20506;-40
2022/05/23 04:07:15;;;;;;;9.07;3.85;;;;;;;7.15;82.99;101431.44;5005571;28;20036;-40
2022/05/23 04:09:42;;;;;;;6.60;4.03;;;;;;;7.22;83.33;101443.75;5005796;28;20026;-40
2022/05/23 04:12:07;;;;;;;5.85;4.10;;;;;;;7.32;83.84;101447.81;5005651;28;20026;-41
2022/05/23 04:14:33;;;;;;;8.63;4.53;;;;;;;7.43;84.46;101450.66;5003844;28;20029;-40
2022/05/23 04:16:59;;;;;;;7.18;4.78;;;;;;;7.57;84.45;101452.25;5006535;28;20101;-40
2022/05/23 04:19:25;;;;;;;7.70;4.00;;;;;;;7.71;83.52;101452.19;5002029;28;20122;-41
2022/05/23 04:21:51;;;;;;;6.55;4.15;;;;;;;7.86;82.40;101450.06;5001810;28;20018;-40
2022/05/23 04:24:18;;;;;;;9.40;4.90;;;;;;;8.01;81.75;101453.28;5003625;28;20029;-41
2022/05/23 04:26:44;;;;;;;8.40;5.32;;;;;;;8.11;82.75;101456.31;5005660;28;20064;-41
2022/05/23 04:29:10;;;;;;;7.82;5.65;;;;;;;8.22;83.95;101464.66;5004283;28;20119;-40
2022/05/23 04:31:36;;;;;;;9.57;4.63;;;;;;;8.30;84.66;101462.56;4998703;28;20186;-40
2022/05/23 04:36:48;;;;;;;8.15;4.75;;;;;;;8.52;85.01;101467.56;5002049;28;20047;-41
2022/05/23 04:39:14;;;;;;;10.43;6.10;;;;;;;8.61;85.26;101467.06;5003100;28;20076;-40
2022/05/23 04:41:39;;;;;;;7.15;4.85;;;;;;;8.72;85.94;101470.91;5003278;28;20500;-40
2022/05/23 04:44:06;;;;;;;10.90;6.40;;;;;;;8.81;86.08;101474.97;5002605;28;20017;-41
2022/05/23 04:46:32;;;;;;;8.88;5.72;;;;;;;8.84;86.30;101468.34;5001566;28;20120;-41
2022/05/23 04:51:50;;;;;;;7.70;5.32;;;;;;;9.08;85.46;101471.00;4986002;28;20034;-41
2022/05/23 04:54:15;;;;;;;9.82;6.03;;;;;;;9.19;84.80;101463.28;5000658;28;20037;-41
2022/05/23 04:56:41;;;;;;;9.48;6.15;;;;;;;9.31;85.37;101465.00;5002607;28;20022;-41
2022/05/23 04:59:06;;;;;;;8.13;5.32;;;;;;;9.38;85.06;101457.72;5006205;28;20292;-41
2022/05/23 05:01:32;;;;;;;6.68;5.25;;;;;;;9.44;86.04;101453.34;5004860;28;20033;-41
2022/05/23 05:03:57;;;;;;;7.07;5.70;;;;;;;9.55;86.06;101449.94;5003613;28;20018;-41
2022/05/23 05:06:24;;;;;;;11.05;5.10;;;;;;;9.68;85.27;101452.44;5002698;28;20052;-40
2022/05/23 05:08:51;;;;;;;9.50;6.05;;;;;;;9.78;85.46;101449.22;5002330;28;20467;-40
2022/05/23 05:11:17;;;;;;;10.60;5.25;;;;;;;9.90;84.42;101449.28;5000091;28;20384;-41
2022/05/23 05:13:44;;;;;;;9.38;5.55;;;;;;;10.00;84.50;101454.91;5002281;28;20379;-41
2022/05/23 05:16:10;;;;;;;12.70;5.22;;;;;;;10.11;84.81;101446.13;5001192;28;20025;-41
2022/05/23 05:18:37;;;;;;;11.13;6.10;;;;;;;10.21;84.75;101442.91;5002464;28;20030;-40
2022/05/23 05:21:07;;;;;;;11.95;5.85;;;;;;;10.33;85.40;101440.25;5001712;28;20112;-41
2022/05/23 05:23:33;;;;;;;10.95;5.80;;;;;;;10.40;85.44;101436.44;5000666;28;20022;-40
2022/05/23 05:25:59;;;;;;;14.50;5.82;;;;;;;10.50;85.71;101428.66;5003369;28;20112;-41
2022/05/23 05:28:24;;;;;;;10.55;4.85;;;;;;;10.58;85.17;101433.66;4997143;28;20108;-40
2022/05/23 05:30:59;;;;;;;12.52;5.82;;;;;;;10.73;85.15;101429.72;4991375;28;20049;-41
2022/05/23 05:33:32;;;;;;;8.57;4.72;;;;;;;10.82;84.21;101431.03;4988626;28;20642;-41
2022/05/23 05:36:06;;;;;;;4.95;3.70;;;;;;;10.92;83.22;101433.91;4999728;28;20113;-42
2022/05/23 05:39:00;;;;;;;9.13;4.65;;;;;;;11.00;83.24;101430.91;5000964;28;20044;-41
2022/05/23 05:41:53;;;;;;;8.70;4.72;;;;;;;11.09;82.63;101432.16;4990211;28;20034;-41
2022/05/23 05:44:23;;;;;;;7.20;4.72;;;;;;;11.22;82.53;101422.25;4989315;28;20645;-41
2022/05/23 05:46:54;;;;;;;10.45;5.18;;;;;;;11.33;82.08;101414.19;5001507;28;20591;-40
2022/05/23 05:49:24;;;;;;;7.47;4.32;;;;;;;11.44;81.84;101415.19;4999166;28;20638;-42
2022/05/23 05:51:52;;;;;;;11.32;4.40;;;;;;;11.54;81.64;101407.38;5002790;28;20060;-42
2022/05/23 05:54:24;;;;;;;7.00;4.43;;;;;;;11.65;82.21;101400.31;4998138;28;20637;-42
2022/05/23 05:56:51;;;;;;;9.15;4.85;;;;;;;11.80;81.92;101406.81;5001266;28;20117;-42
2022/05/23 05:59:17;;;;;;;6.90;4.15;;;;;;;11.95;81.66;101400.91;4997868;28;20042;-42
2022/05/23 06:01:43;;;;;;;9.73;4.20;;;;;;;12.07;80.56;101409.75;4996213;28;20074;-43
2022/05/23 06:04:09;;;;;;;7.40;4.35;;;;;;;12.11;79.51;101415.44;4991583;28;20018;-42
2022/05/23 06:12:02;;;;;;;5.45;3.25;;;;;;;12.44;76.79;101392.34;4996626;28;20041;-42
2022/05/23 06:14:28;;;;;;;4.38;3.78;;;;;;;12.53;76.56;101390.88;4998946;28;20030;-42
2022/05/23 06:16:53;;;;;;;7.35;3.60;;;;;;;12.63;75.64;101391.03;5000470;28;20041;-42
2022/05/23 06:19:20;;;;;;;8.95;4.22;;;;;;;12.73;75.47;101393.03;4996982;28;20053;-42
2022/05/23 06:21:46;;;;;;;7.78;3.78;;;;;;;12.89;75.64;101384.94;4999797;28;20045;-42
2022/05/23 06:24:12;;;;;;;12.02;3.70;;;;;;;13.02;74.99;101384.59;4999735;28;20251;-41
2022/05/23 06:26:37;;;;;;;4.78;2.78;;;;;;;13.13;74.77;101380.19;4997991;28;20117;-41
2022/05/23 06:29:03;;;;;;;5.30;3.30;;;;;;;13.25;73.93;101374.69;4998789;28;20420;-42
2022/05/23 06:31:29;;;;;;;5.43;3.08;;;;;;;13.38;73.50;101381.59;5001045;28;20538;-42
2022/05/23 06:33:55;;;;;;;5.38;3.10;;;;;;;13.51;73.14;101378.50;4995985;28;20156;-42
2022/05/23 06:36:21;;;;;;;5.90;3.10;;;;;;;13.49;72.07;101376.06;4998802;28;20430;-42
2022/05/23 06:38:47;;;;;;;5.10;3.20;;;;;;;13.59;72.40;101365.41;5000565;28;20029;-41
2022/05/23 06:41:13;;;;;;;4.22;3.13;;;;;;;13.75;72.09;101362.88;4998942;28;20033;-42
2022/05/23 06:43:40;;;;;;;4.63;3.10;;;;;;;13.89;72.41;101366.78;5000593;28;20037;-42
2022/05/23 06:46:06;;;;;;;5.20;3.22;;;;;;;13.97;71.80;101357.44;5000258;28;20113;-42
2022/05/23 06:48:34;;;;;;;6.38;3.15;;;;;;;14.13;71.73;101357.31;4996030;28;20057;-42
2022/05/23 06:51:00;;;;;;;5.43;3.30;;;;;;;14.30;71.40;101359.06;4999282;28;20030;-42
2022/05/23 06:53:27;;;;;;;5.07;3.13;;;;;;;14.40;71.02;101359.16;4999213;28;20018;-42
2022/05/23 06:55:53;;;;;;;4.18;2.72;;;;;;;14.52;70.47;101365.19;4999188;28;20030;-42
2022/05/23 06:58:21;;;;;;;10.88;3.00;;;;;;;14.64;69.41;101357.72;4999280;28;20030;-42
2022/05/23 07:00:48;;;;;;;3.78;2.92;;;;;;;14.75;68.94;101353.22;4998555;28;20111;-42
2022/05/23 07:03:14;;;;;;;4.70;2.55;;;;;;;14.82;68.74;101353.78;5000135;28;20022;-42
2022/05/23 07:13:55;;;;;;;7.63;2.72;;;;;;;15.32;66.56;101345.09;5004422;28;20392;-42
2022/05/23 07:16:22;;;;;;;5.18;2.67;;;;;;;15.42;67.03;101337.03;4997370;28;20038;-42
2022/05/23 07:18:47;;;;;;;3.67;2.30;;;;;;;15.49;66.37;101325.97;5000172;28;20053;-41
2022/05/23 07:21:13;;;;;;;3.85;2.75;;;;;;;15.63;65.57;101326.31;5005546;28;20061;-42
2022/05/23 07:23:39;;;;;;;5.00;3.05;;;;;;;15.74;65.56;101327.13;5002549;28;20065;-42
2022/05/23 07:26:07;;;;;;;2.97;2.33;;;;;;;15.85;65.34;101318.78;5004450;28;20033;-41
2022/05/23 07:28:32;;;;;;;5.93;2.13;;;;;;;15.98;64.78;101317.44;5003908;28;20591;-42
2022/05/23 07:31:00;;;;;;;3.15;1.92;;;;;;;16.01;63.63;101315.00;5006111;28;20025;-42
2022/05/23 07:33:25;;;;;;;4.85;2.60;;;;;;;16.07;63.44;101312.28;5000648;28;20033;-42
2022/05/23 07:36:00;;;;;;;5.60;1.95;;;;;;;16.17;62.16;101309.59;5004304;28;20026;-42
2022/05/23 07:38:26;;;;;;;;;;;;;;;16.30;63.09;101306.31;5007636;28;20383;-41
2022/05/23 07:40:53;;;;;;;4.47;2.65;;;;;;;16.51;63.21;101312.50;5002575;28;19913;-42
2022/05/23 07:43:19;;;;;;;4.07;2.30;;;;;;;16.58;62.52;101305.72;5003622;28;20418;-42
2022/05/23 07:45:47;;;;;;;2.63;1.60;;;;;;;16.69;61.53;101300.31;5006360;28;20021;-42
2022/05/23 07:48:13;;;;;;;4.53;2.17;;;;;;;16.76;60.00;101293.53;5001149;28;20042;-42
2022/05/23 07:50:38;;;;;;;5.47;2.15;;;;;;;16.83;59.57;101293.22;5003549;28;20026;-43
2022/05/23 08:01:16;;;;;;;1.00;0.90;;;;;;;17.13;54.15;101278.75;5004273;28;20513;-41
2022/05/23 08:03:43;;;;;;;5.70;1.45;;;;;;;17.23;53.56;101273.28;5003448;28;20022;-41
2022/05/23 08:06:09;;;;;;;2.60;1.40;;;;;;;17.22;53.40;101272.47;4998756;28;20514;-42
2022/05/23 08:08:35;;;;;;;2.47;1.60;;;;;;;17.23;54.96;101267.88;5003370;28;20030;-42
2022/05/23 08:11:01;;;;;;;3.28;1.52;;;;;;;17.35;54.83;101267.53;5002088;28;20357;-42
2022/05/23 08:13:27;;;;;;;1.90;1.20;;;;;;;17.45;53.99;101262.06;5003418;28;20037;-42
2022/05/23 08:15:52;;;;;;;1.92;1.20;;;;;;;17.50;52.54;101267.44;5004296;28;20121;-42
2022/05/23 08:18:18;;;;;;;1.20;1.10;;;;;;;17.57;52.12;101258.97;4997484;28;20032;-42
2022/05/23 08:20:44;;;;;;;1.70;1.13;;;;;;;17.66;52.23;101268.13;5000887;28;20030;-42
2022/05/23 08:23:10;;;;;;;7.32;2.30;;;;;;;17.77;52.78;101262.41;4997763;28;20104;-41
2022/05/23 08:25:36;;;;;;;2.92;1.50;;;;;;;17.81;52.14;101257.22;4999922;28;20177;-42
2022/05/23 08:28:02;;;;;;;2.92;1.65;;;;;;;17.79;52.32;101246.66;5002066;28;20455;-42
2022/05/23 08:30:28;;;;;;;3.95;1.48;;;;;;;17.93;52.79;101245.97;5000428;28;20029;-42
2022/05/23 08:32:54;;;;;;;1.60;1.20;;;;;;;17.95;52.30;101246.50;4983421;28;20026;-42
2022/05/23 08:35:21;;;;;;;2.75;1.48;;;;;;;17.99;52.53;101236.72;4998878;28;20037;-41
2022/05/23 08:37:47;;;;;;;4.50;1.40;;;;;;;18.13;53.17;101237.66;4999011;28;20037;-42
2022/05/23 08:40:13;;;;;;;2.92;1.30;;;;;;;18.39;52.82;101227.34;5000210;28;20111;-43
2022/05/23 08:42:41;;;;;;;1.67;1.17;;;;;;;18.48;50.93;101219.38;4999284;28;20030;-42
2022/05/23 08:45:10;;;;;;;1.52;1.08;;;;;;;18.49;50.49;101221.00;5000758;28;20100;-42
2022/05/23 08:47:41;;;;;;;4.22;1.50;;;;;;;18.41;50.93;101219.72;5004642;28;20052;-42
2022/05/23 08:50:07;;;;;;;2.45;1.27;;;;;;;18.56;51.88;101218.75;4998170;28;20038;-42
2022/05/23 08:52:44;;;;;;;1.25;1.02;;;;;;;18.70;50.78;101211.56;5003930;28;20033;-41
2022/05/23 08:55:23;;;;;;;1.52;0.93;;;;;;;18.83;49.50;101218.16;5002100;28;20029;-42
2022/05/23 08:57:52;;;;;;;2.60;1.30;;;;;;;18.86;48.56;101217.59;4999496;28;20030;-42
2022/05/23 09:00:23;;;;;;;7.40;1.60;;;;;;;18.89;48.27;101223.25;5002717;28;20403;-41
2022/05/23 09:02:55;;;;;;;2.65;1.02;;;;;;;18.85;46.19;101219.50;4999202;28;20029;-42
2022/05/23 09:05:32;;;;;;;2.35;1.15;;;;;;;18.75;46.19;101211.47;4996777;28;20392;-42
2022/05/23 09:08:02;;;;;;;2.00;1.08;;;;;;;18.63;46.12;101213.78;5003268;28;20025;-42
2022/05/23 09:10:43;;;;;;;3.63;1.23;;;;;;;18.62;46.80;101202.09;5001513;28;20036;-42
2022/05/23 09:13:12;;;;;;;1.98;1.10;;;;;;;18.85;47.14;101211.38;5001450;28;20724;-42
2022/05/23 09:15:38;;;;;;;2.22;1.10;;;;;;;18.95;46.75;101202.25;5005772;28;20232;-40
2022/05/23 09:18:06;;;;;;;1.67;0.90;;;;;;;18.99;45.01;101198.66;5002434;28;20027;-40
2022/05/23 09:20:44;;;;;;;1.27;0.77;;;;;;;18.91;44.50;101198.53;5002648;28;20060;-40
2022/05/23 09:23:21;;;;;;;2.05;0.88;;;;;;;18.89;44.46;101198.00;4998999;28;20041;-41
2022/05/23 09:25:50;;;;;;;4.28;1.15;;;;;;;18.89;44.81;101193.38;5002684;28;20119;-40
2022/05/23 09:28:29;;;;;;;6.90;1.23;;;;;;;19.09;44.76;101194.19;5002130;28;20033;-40
2022/05/23 09:31:15;;;;;;;3.88;1.13;;;;;;;19.24;43.99;101183.09;5002971;28;20060;-41
2022/05/23 09:33:51;;;;;;;3.22;1.00;;;;;;;19.33;42.88;101173.16;5001075;28;20026;-41
2022/05/23 09:36:31;;;;;;;1.30;0.82;;;;;;;19.49;43.89;101171.81;5003477;28;20410;-40
2022/05/23 09:39:00;;;;;;;2.08;1.13;;;;;;;19.53;43.14;101167.38;5001464;28;20030;-40
2022/05/23 09:49:52;;;;;;;3.70;1.20;;;;;;;19.60;42.65;101161.63;4996190;28;20045;-41
2022/05/23 09:52:31;;;;;;;1.65;0.90;;;;;;;19.57;41.96;101156.78;4999360;28;21388;-41
2022/05/23 09:55:03;;;;;;;1.98;1.17;;;;;;;19.60;43.38;101156.19;4995582;28;20081;-41
2022/05/23 09:57:39;;;;;;;2.35;1.08;;;;;;;19.66;43.28;101154.16;4997461;28;20026;-41
2022/05/23 10:00:10;;;;;;;1.88;1.30;;;;;;;19.71;43.50;101151.34;4992715;28;20025;-41
2022/05/23 10:02:47;;;;;;;1.88;1.20;;;;;;;19.72;43.11;101145.63;5012945;22;20499;-39
2022/05/23 10:05:26;;;;;;;1.13;0.90;;;;;;;19.84;43.54;101136.97;4994171;28;20158;-37
2022/05/23 10:07:54;;;;;;;2.67;0.98;;;;;;;19.85;43.10;101141.31;4995764;28;20064;-37
2022/05/23 10:10:25;;;;;;;2.45;1.00;;;;;;;19.84;42.50;101124.19;4999297;28;20021;-37
2022/05/23 10:13:09;;;;;;;1.52;0.82;;;;;;;19.89;42.01;101128.72;4992033;28;20148;-38
2022/05/23 10:15:43;;;;;;;1.20;0.90;;;;;;;20.03;42.08;101121.38;4983042;28;20384;-37
2022/05/23 10:18:16;;;;;;;2.92;1.52;;;;;;;20.16;42.05;101126.03;4980085;28;20113;-37
2022/05/23 10:20:43;;;;;;;2.85;1.10;;;;;;;20.18;42.23;101121.06;4977393;28;20092;-37
2022/05/23 10:23:22;;;;;;;3.00;1.20;;;;;;;20.33;41.79;101108.28;4976079;28;20468;-37
2022/05/23 10:26:14;;;;;;;1.58;0.95;;;;;;;20.43;41.38;101108.88;4978453;28;20034;-38
2022/05/23 10:29:17;;;;;;;1.67;0.85;;;;;;;20.45;41.47;101100.41;4978144;28;20388;-37
2022/05/23 10:31:52;;;;;;;0.88;0.80;;;;;;;20.53;41.13;101102.41;4975693;28;20054;-38
2022/05/23 10:34:32;;;;;;;6.57;1.17;;;;;;;20.53;41.37;101107.88;4979440;28;20452;-38
2022/05/23 10:36:58;;;;;;;1.17;1.05;;;;;;;20.69;41.86;101098.25;4980071;28;20566;-37
2022/05/23 10:42:45;;;;;;;1.10;0.75;;;;;;;20.72;40.04;101094.91;4977049;28;20033;-37
2022/05/23 10:45:19;;;;;;;2.50;1.00;;;;;;;20.83;40.00;101081.06;4978057;28;20048;-37
2022/05/23 10:47:50;;;;;;;;;;;;;;;20.89;39.53;101071.66;4980141;28;20118;-37
2022/05/23 10:50:28;;;;;;;0.90;0.80;;;;;;;20.95;37.87;101076.66;4978953;28;20414;-37
2022/05/23 10:53:09;;;;;;;1.27;0.80;;;;;;;20.92;36.76;101066.38;4981317;28;20034;-37
2022/05/23 10:55:40;;;;;;;3.25;0.70;;;;;;;21.02;36.67;101077.03;4978112;28;20053;-38
2022/05/23 10:58:37;;;;;;;1.75;0.70;;;;;;;21.07;36.70;101068.72;4979731;28;20359;-38
2022/05/23 11:01:21;;;;;;;4.47;0.90;;;;;;;21.03;36.84;101059.56;4978906;28;20038;-37
2022/05/23 11:04:11;;;;;;;3.92;1.08;;;;;;;21.10;37.55;101062.66;4977350;28;20060;-37
2022/05/23 11:06:39;;;;;;;1.73;0.80;;;;;;;21.25;37.86;101069.69;4981504;28;20458;-38
2022/05/23 11:09:23;;;;;;;1.40;0.70;;;;;;;21.42;38.72;101047.97;4984212;28;20066;-37
2022/05/23 11:12:25;;;;;;;1.00;0.90;;;;;;;21.61;38.56;101050.44;4981166;28;20027;-37
2022/05/23 11:15:21;;;;;;;3.97;1.02;;;;;;;21.69;36.40;101035.22;4979485;28;20301;-38
2022/05/23 11:18:13;;;;;;;2.60;1.13;;;;;;;21.63;37.07;101031.03;4979386;28;20034;-37
2022/05/23 11:20:40;;;;;;;0.98;0.93;;;;;;;21.61;36.70;101036.81;4980344;28;20030;-37
2022/05/23 11:23:21;;;;;;;0.80;0.80;;;;;;;21.57;35.82;101026.88;4982689;28;20496;-38
2022/05/23 11:25:51;;;;;;;1.20;0.70;;;;;;;21.30;35.60;101034.09;4980887;28;20405;-38
2022/05/23 11:34:34;;;;;;;1.45;1.33;;;;;;;21.62;36.54;101010.34;4981472;28;20182;-37
2022/05/23 11:37:42;;;;;;;8.02;1.77;;;;;;;21.78;38.30;101002.53;4983618;28;20045;-37
2022/05/23 11:40:06;;;;;;;1.95;0.95;;;;;;;21.94;37.08;101007.25;4985739;28;20085;-37
2022/05/23 11:42:42;;;;;;;2.65;1.10;;;;;;;21.77;36.91;101001.75;4986445;28;20030;-37
2022/05/23 11:47:55;;;;;;;3.50;1.30;;;;;;;21.59;38.20;101009.06;4982431;28;20041;-37
2022/05/23 11:50:26;;;;;;;4.05;1.40;;;;;;;21.80;37.39;100986.66;4985682;28;20411;-37
2022/05/23 11:53:12;;;;;;;5.93;1.70;;;;;;;21.90;38.48;100978.16;4982286;28;20062;-37
2022/05/23 11:56:00;;;;;;;3.15;1.17;;;;;;;22.13;37.64;100978.88;4984362;28;20395;-37
2022/05/23 11:58:48;;;;;;;1.35;1.20;;;;;;;22.41;37.18;100963.78;4986916;28;20503;-38
2022/05/23 12:01:14;;;;;;;1.70;1.30;;;;;;;22.48;37.29;100952.41;4987366;28;20038;-37
2022/05/23 12:03:55;;;;;;;1.58;1.00;;;;;;;22.67;35.91;100966.50;4985623;28;20026;-38
2022/05/23 12:06:23;;;;;;;3.72;1.20;;;;;;;22.55;35.47;100963.63;4986840;28;20034;-38
2022/05/23 12:08:58;;;;;;;8.80;1.10;;;;;;;22.51;34.68;100968.94;4986379;28;20040;-37
2022/05/23 12:11:30;;;;;;;1.15;0.90;;;;;;;22.66;35.27;100955.91;4986617;28;20504;-37
2022/05/23 12:14:12;;;;;;;4.53;1.23;;;;;;;22.87;34.96;100945.91;4983550;28;20030;-38
2022/05/23 12:16:42;;;;;;;3.72;1.30;;;;;;;22.88;34.49;100953.78;4987256;28;20038;-38
2022/05/23 12:19:17;;;;;;;2.30;1.10;;;;;;;22.96;34.52;100937.69;4979941;28;20038;-38
2022/05/23 12:21:45;;;;;;;2.95;1.10;;;;;;;23.02;33.65;100937.19;4985337;28;20034;-38
2022/05/23 12:24:25;;;;;;;2.40;0.90;;;;;;;23.09;33.50;100926.53;4984405;28;20126;-38
2022/05/23 12:26:54;;;;;;;4.95;1.17;;;;;;;23.15;33.36;100922.50;4984062;28;20045;-38
2022/05/23 12:29:38;;;;;;;0.90;0.73;;;;;;;23.26;32.47;100916.66;4981168;28;20106;-38
2022/05/23 12:32:16;;;;;;;1.88;0.98;;;;;;;23.14;32.40;100907.22;4988444;28;20518;-38
2022/05/23 12:34:46;;;;;;;2.28;0.82;;;;;;;23.21;32.50;100909.47;4981875;28;20042;-38
2022/05/23 12:37:20;;;;;;;2.03;1.10;;;;;;;23.18;32.51;100916.38;4977678;28;20129;-38
2022/05/23 12:40:06;;;;;;;0.95;0.80;;;;;;;23.25;32.18;100902.19;4987196;28;20049;-37
2022/05/23 12:43:08;;;;;;;4.50;1.30;;;;;;;23.35;31.97;100895.56;4984638;28;20100;-38
2022/05/23 12:45:52;;;;;;;1.27;1.05;;;;;;;23.26;31.67;100875.66;4988523;28;20399;-38